createdAt,value
2023-03-22T00:02:46.342Z,8.30
2023-03-22T00:05:33.907Z,8.30
2023-03-22T00:08:21.367Z,8.30
2023-03-22T00:11:09.637Z,8.30
2023-03-22T00:13:59.010Z,8.30
2023-03-22T00:16:47.416Z,8.30
2023-03-22T00:19:34.952Z,8.30
2023-03-22T00:22:22.466Z,8.40
2023-03-22T00:25:11.096Z,8.40
2023-03-22T00:27:58.560Z,8.40
2023-03-22T00:31:00.168Z,8.40
2023-03-22T00:33:47.609Z,8.40
2023-03-22T00:36:38.018Z,8.40
2023-03-22T00:39:27.098Z,8.40
2023-03-22T00:42:14.590Z,8.40
2023-03-22T00:45:02.241Z,8.40
2023-03-22T00:47:49.666Z,8.40
2023-03-22T00:50:39.901Z,8.40
2023-03-22T00:53:29.322Z,8.40
2023-03-22T00:56:16.928Z,8.40
2023-03-22T00:59:05.635Z,8.40
2023-03-22T01:01:53.100Z,8.40
2023-03-22T01:04:49.961Z,8.40
2023-03-22T01:07:38.642Z,8.40
2023-03-22T01:10:26.461Z,8.40
2023-03-22T01:13:14.353Z,8.40
2023-03-22T01:16:03.101Z,8.50
2023-03-22T01:18:50.574Z,8.50
2023-03-22T01:21:38.027Z,8.50
2023-03-22T01:24:25.740Z,8.50
2023-03-22T01:27:13.175Z,8.50
2023-03-22T01:30:00.697Z,8.60
2023-03-22T01:32:48.173Z,8.60
2023-03-22T01:35:36.822Z,8.60
2023-03-22T01:38:24.311Z,8.60
2023-03-22T01:41:11.921Z,8.60
2023-03-22T01:44:19.546Z,8.70
2023-03-22T01:47:11.730Z,8.70
2023-03-22T01:49:59.196Z,8.70
2023-03-22T01:52:48.128Z,8.70
2023-03-22T01:55:37.029Z,8.70
2023-03-22T01:58:25.248Z,8.70
2023-03-22T02:01:13.191Z,8.70
2023-03-22T02:04:07.249Z,8.70
2023-03-22T02:06:55.736Z,8.70
2023-03-22T02:09:43.977Z,8.70
2023-03-22T02:13:09.326Z,8.70
2023-03-22T02:16:40.324Z,8.70
2023-03-22T02:20:13.746Z,8.70
2023-03-22T02:23:46.564Z,8.70
2023-03-22T02:26:52.245Z,8.70
2023-03-22T02:29:54.736Z,8.70
2023-03-22T02:33:21.028Z,8.70
2023-03-22T02:36:31.603Z,8.60
2023-03-22T02:39:47.988Z,8.50
2023-03-22T02:42:53.232Z,8.60
2023-03-22T02:46:07.633Z,8.50
2023-03-22T02:49:07.919Z,8.30
2023-03-22T02:52:33.308Z,8.30
2023-03-22T02:55:34.953Z,8.20
2023-03-22T02:58:45.878Z,8.20
2023-03-22T03:01:46.438Z,8.20
2023-03-22T03:04:43.763Z,8.10
2023-03-22T03:07:31.951Z,8.20
2023-03-22T03:10:21.244Z,8.30
2023-03-22T03:13:18.193Z,8.30
2023-03-22T03:16:08.304Z,8.40
2023-03-22T03:19:55.958Z,8.50
2023-03-22T03:22:57.632Z,8.50
2023-03-22T03:26:10.595Z,8.40
2023-03-22T03:29:11.434Z,8.40
2023-03-22T03:32:28.478Z,8.30
2023-03-22T03:35:27.512Z,8.20
2023-03-22T03:38:26.601Z,8.10
2023-03-22T03:41:22.175Z,8.10
2023-03-22T03:44:11.598Z,8.10
2023-03-22T03:47:00.098Z,8.10
2023-03-22T03:49:47.593Z,8.00
2023-03-22T03:52:35.779Z,7.90
2023-03-22T03:55:24.676Z,7.80
2023-03-22T03:58:12.226Z,7.70
2023-03-22T04:00:59.762Z,7.60
2023-03-22T04:03:50.839Z,7.50
2023-03-22T04:06:39.788Z,7.40
2023-03-22T04:09:32.059Z,7.30
2023-03-22T04:12:19.560Z,7.20
2023-03-22T04:15:08.516Z,7.10
2023-03-22T04:17:56.034Z,7.10
2023-03-22T04:20:49.552Z,7.10
2023-03-22T04:23:37.069Z,7.00
2023-03-22T04:26:26.667Z,6.90
2023-03-22T04:29:14.979Z,6.80
2023-03-22T04:32:06.033Z,6.80
2023-03-22T04:34:53.699Z,6.80
2023-03-22T04:37:43.189Z,6.80
2023-03-22T04:40:35.357Z,6.70
2023-03-22T04:43:23.059Z,6.60
2023-03-22T04:46:13.092Z,6.50
2023-03-22T04:49:01.341Z,6.50
2023-03-22T04:51:48.853Z,6.50
2023-03-22T04:54:37.582Z,6.50
2023-03-22T04:57:25.122Z,6.40
2023-03-22T05:00:13.434Z,6.40
2023-03-22T05:03:01.985Z,6.30
2023-03-22T05:05:57.880Z,6.30
2023-03-22T05:08:45.971Z,6.30
2023-03-22T05:11:33.875Z,6.30
2023-03-22T05:14:21.467Z,6.20
2023-03-22T05:17:09.896Z,6.20
2023-03-22T05:19:57.441Z,6.20
2023-03-22T05:22:45.513Z,6.20
2023-03-22T05:25:34.265Z,6.30
2023-03-22T05:28:22.529Z,6.30
2023-03-22T05:31:11.876Z,6.40
2023-03-22T05:33:59.433Z,6.40
2023-03-22T05:36:47.019Z,6.40
2023-03-22T05:39:34.676Z,6.50
2023-03-22T05:42:22.132Z,6.50
2023-03-22T05:45:10.716Z,6.60
2023-03-22T05:47:58.588Z,6.70
2023-03-22T05:50:46.336Z,6.70
2023-03-22T05:53:33.880Z,6.80
2023-03-22T05:56:24.414Z,6.80
2023-03-22T05:59:12.158Z,6.90
2023-03-22T06:01:59.662Z,7.10
2023-03-22T06:04:47.849Z,7.20
2023-03-22T06:07:35.439Z,7.30
2023-03-22T06:10:24.364Z,7.30
2023-03-22T06:13:11.949Z,7.40
2023-03-22T06:16:04.401Z,7.50
2023-03-22T06:18:51.947Z,7.70
2023-03-22T06:21:39.470Z,7.90
2023-03-22T06:24:27.015Z,8.30
2023-03-22T06:27:14.461Z,8.50
2023-03-22T06:30:02.060Z,8.60
2023-03-22T06:32:49.560Z,8.70
2023-03-22T06:35:37.246Z,8.80
2023-03-22T06:38:24.693Z,9.00
2023-03-22T06:41:13.064Z,9.10
2023-03-22T06:44:01.365Z,9.30
2023-03-22T06:46:48.893Z,9.40
2023-03-22T06:49:36.618Z,9.60
2023-03-22T06:52:24.145Z,9.70
2023-03-22T06:55:11.660Z,9.80
2023-03-22T06:57:59.978Z,9.80
2023-03-22T07:00:47.491Z,9.90
2023-03-22T07:03:34.983Z,10.00
2023-03-22T07:06:22.510Z,10.10
2023-03-22T07:09:10.530Z,10.20
2023-03-22T07:11:57.996Z,10.30
2023-03-22T07:14:45.541Z,10.40
2023-03-22T07:17:32.970Z,10.50
2023-03-22T07:20:20.829Z,10.60
2023-03-22T07:23:11.280Z,10.70
2023-03-22T07:26:01.111Z,10.70
2023-03-22T07:28:48.549Z,10.70
2023-03-22T07:31:36.706Z,10.60
2023-03-22T07:34:24.152Z,10.60
2023-03-22T07:37:11.686Z,10.60
2023-03-22T07:39:59.169Z,10.70
2023-03-22T07:42:50.007Z,10.80
2023-03-22T07:45:37.459Z,11.10
2023-03-22T07:48:25.181Z,11.30
2023-03-22T07:51:12.799Z,11.60
2023-03-22T07:54:01.887Z,11.70
2023-03-22T07:56:49.408Z,11.80
2023-03-22T07:59:39.899Z,11.90
2023-03-22T08:02:28.277Z,12.10
2023-03-22T08:05:15.925Z,12.00
2023-03-22T08:08:03.397Z,12.10
2023-03-22T08:10:51.689Z,12.30
2023-03-22T08:13:40.002Z,12.60
2023-03-22T08:16:27.840Z,12.90
2023-03-22T08:19:15.594Z,13.20
2023-03-22T08:22:03.786Z,13.30
2023-03-22T08:24:54.899Z,13.50
2023-03-22T08:27:42.354Z,13.70
2023-03-22T08:30:29.928Z,14.00
2023-03-22T08:33:17.881Z,14.30
2023-03-22T08:36:12.776Z,14.40
2023-03-22T08:39:01.552Z,14.60
2023-03-22T08:41:49.001Z,14.60
2023-03-22T08:44:36.927Z,14.60
2023-03-22T08:47:24.392Z,14.90
2023-03-22T08:50:13.075Z,15.10
2023-03-22T08:53:01.261Z,15.10
2023-03-22T08:55:48.811Z,15.50
2023-03-22T08:58:36.444Z,15.80
2023-03-22T09:01:24.548Z,16.20
2023-03-22T09:04:12.157Z,16.50
2023-03-22T09:06:59.559Z,16.70
2023-03-22T09:09:47.668Z,16.60
2023-03-22T09:12:35.372Z,16.60
2023-03-22T09:15:23.051Z,16.50
2023-03-22T09:18:11.698Z,16.50
2023-03-22T09:20:59.200Z,16.50
2023-03-22T09:23:48.027Z,16.70
2023-03-22T09:26:35.663Z,16.70
2023-03-22T09:29:23.137Z,16.80
2023-03-22T09:32:10.701Z,16.70
2023-03-22T09:34:58.149Z,16.50
2023-03-22T09:37:45.623Z,16.50
2023-03-22T09:40:35.801Z,16.50
2023-03-22T09:43:23.342Z,16.70
2023-03-22T09:46:18.625Z,16.50
2023-03-22T09:49:19.249Z,16.60
2023-03-22T09:52:17.524Z,16.70
2023-03-22T09:55:18.468Z,16.80
2023-03-22T09:58:47.939Z,16.80
2023-03-22T10:02:04.838Z,17.10
2023-03-22T10:05:13.112Z,17.40
2023-03-22T10:08:30.445Z,17.50
2023-03-22T10:11:47.472Z,17.60
2023-03-22T10:15:01.885Z,17.70
2023-03-22T10:17:56.082Z,17.90
2023-03-22T10:20:59.561Z,17.90
2023-03-22T10:24:00.861Z,18.00
2023-03-22T10:26:49.736Z,17.90
2023-03-22T10:29:46.588Z,18.10
2023-03-22T10:33:02.748Z,18.30
2023-03-22T10:35:53.165Z,18.30
2023-03-22T10:38:49.813Z,18.50
2023-03-22T10:41:38.425Z,18.60
2023-03-22T10:44:29.861Z,18.70
2023-03-22T10:47:29.863Z,18.90
2023-03-22T10:50:28.899Z,18.90
2023-03-22T10:53:39.838Z,18.90
2023-03-22T10:56:27.574Z,18.60
2023-03-22T10:59:51.812Z,18.40
2023-03-22T11:02:59.135Z,18.10
2023-03-22T11:06:14.145Z,18.20
2023-03-22T11:09:23.742Z,18.30
2023-03-22T11:12:13.475Z,18.10
2023-03-22T11:15:01.082Z,18.20
2023-03-22T11:17:49.345Z,18.10
2023-03-22T11:20:54.350Z,18.10
2023-03-22T11:23:52.234Z,18.30
2023-03-22T11:26:41.937Z,18.40
2023-03-22T11:29:39.138Z,18.50
2023-03-22T11:32:37.100Z,18.70
2023-03-22T11:35:27.146Z,18.90
2023-03-22T11:38:37.991Z,19.20
2023-03-22T11:41:32.450Z,19.50
2023-03-22T11:44:23.145Z,19.70
2023-03-22T11:47:14.180Z,20.00
2023-03-22T11:50:09.328Z,20.10
2023-03-22T11:53:01.725Z,20.00
2023-03-22T11:55:53.124Z,20.00
2023-03-22T11:59:04.227Z,20.00
2023-03-22T12:02:15.146Z,20.00
2023-03-22T12:05:11.198Z,20.00
2023-03-22T12:08:20.958Z,20.00
2023-03-22T12:11:25.394Z,19.80
2023-03-22T12:14:34.791Z,19.80
2023-03-22T12:17:56.586Z,19.90
2023-03-22T12:21:01.220Z,19.80
2023-03-22T12:23:48.873Z,19.90
2023-03-22T12:26:37.747Z,19.90
2023-03-22T12:29:27.669Z,19.90
2023-03-22T12:32:25.901Z,20.00
2023-03-22T12:35:25.680Z,20.10
2023-03-22T12:38:31.178Z,20.10
2023-03-22T12:41:41.061Z,20.10
2023-03-22T12:44:40.422Z,20.10
2023-03-22T12:47:42.778Z,20.20
2023-03-22T12:51:00.869Z,20.20
2023-03-22T12:53:55.051Z,20.20
2023-03-22T12:56:46.693Z,19.90
2023-03-22T12:59:34.316Z,19.80
2023-03-22T13:02:35.986Z,19.60
2023-03-22T13:05:32.183Z,19.50
2023-03-22T13:08:22.509Z,19.50
2023-03-22T13:11:24.349Z,19.60
2023-03-22T13:14:53.186Z,19.60
2023-03-22T13:17:45.180Z,19.60
2023-03-22T13:20:34.208Z,19.60
2023-03-22T13:23:28.406Z,19.70
2023-03-22T13:26:16.407Z,19.90
2023-03-22T13:29:17.633Z,20.00
2023-03-22T13:32:33.498Z,20.00
2023-03-22T13:35:38.220Z,20.10
2023-03-22T13:38:41.058Z,20.20
2023-03-22T13:41:37.041Z,20.30
2023-03-22T13:44:36.333Z,20.20
2023-03-22T13:47:44.834Z,20.10
2023-03-22T13:50:34.617Z,20.10
2023-03-22T13:53:30.759Z,20.00
2023-03-22T13:56:57.184Z,19.90
2023-03-22T14:00:22.372Z,19.90
2023-03-22T14:03:40.837Z,20.00
2023-03-22T14:06:35.404Z,20.00
2023-03-22T14:09:36.451Z,20.00
2023-03-22T14:12:48.223Z,20.00
2023-03-22T14:15:45.341Z,20.10
2023-03-22T14:18:37.198Z,20.20
2023-03-22T14:21:36.759Z,20.20
